CPA581 RJCC-VHHH
Flight info
| Callsign | CPA581 |
|---|---|
| Flight time | 5h 2m |
| Altitude | 36000 |
| Route | DALBI Y120 TAPPI Y12 ARIKA Y14 MIHOU Y45 HKC Y50 URUMA/N0491F380 Y50 IGMON A1 ELATO V522 ABBEY |
| Aircraft | B77W/H-SDE1E2E3FGHIJ2J3J4J5M1RWXY/LB1D1 |
Departure
| Time | 2026-05-05 07:47 |
|---|---|
| Airport | New Chitose Airport (RJCC) |
Arrival
| Time | 2026-05-05 12:49 |
|---|---|
| Airport | Hong Kong International Airport (VHHH) |
| Time | Latitude | Longitude | Altitude | Speed | Heading |
|---|---|---|---|---|---|
| 2026-05-05 06:41 | 42.78550 | 141.67509 | 73 ft | 0 kts | 83° |
| 2026-05-05 07:33 | 42.78550 | 141.67508 | 63 ft | 1 kts | 83° |
| 2026-05-05 07:33 | 42.78547 | 141.67476 | 63 ft | 4 kts | 83° |
| 2026-05-05 07:33 | 42.78544 | 141.67445 | 63 ft | 4 kts | 73° |
| 2026-05-05 07:33 | 42.78536 | 141.67421 | 63 ft | 4 kts | 37° |
| 2026-05-05 07:34 | 42.78521 | 141.67412 | 64 ft | 4 kts | 354° |
| 2026-05-05 07:34 | 42.78495 | 141.67418 | 65 ft | 4 kts | 350° |
| 2026-05-05 07:34 | 42.78488 | 141.67420 | 63 ft | 0 kts | 353° |
| 2026-05-05 07:38 | 42.78489 | 141.67420 | 73 ft | 1 kts | 352° |
| 2026-05-05 07:38 | 42.78537 | 141.67411 | 68 ft | 9 kts | 352° |
| 2026-05-05 07:38 | 42.78597 | 141.67400 | 68 ft | 9 kts | 352° |
| 2026-05-05 07:38 | 42.78655 | 141.67389 | 65 ft | 9 kts | 352° |
| 2026-05-05 07:39 | 42.78718 | 141.67378 | 65 ft | 9 kts | 352° |
| 2026-05-05 07:39 | 42.78780 | 141.67367 | 63 ft | 9 kts | 353° |
| 2026-05-05 07:39 | 42.78842 | 141.67356 | 68 ft | 9 kts | 353° |
| 2026-05-05 07:39 | 42.78906 | 141.67345 | 67 ft | 9 kts | 353° |
| 2026-05-05 07:40 | 42.78969 | 141.67334 | 65 ft | 10 kts | 353° |
| 2026-05-05 07:40 | 42.79036 | 141.67323 | 65 ft | 10 kts | 353° |
| 2026-05-05 07:40 | 42.79099 | 141.67312 | 64 ft | 9 kts | 353° |
| 2026-05-05 07:40 | 42.79158 | 141.67301 | 68 ft | 8 kts | 353° |
| 2026-05-05 07:41 | 42.79206 | 141.67312 | 68 ft | 7 kts | 40° |
| 2026-05-05 07:41 | 42.79225 | 141.67378 | 64 ft | 8 kts | 77° |
| 2026-05-05 07:41 | 42.79233 | 141.67449 | 68 ft | 8 kts | 82° |
| 2026-05-05 07:41 | 42.79240 | 141.67520 | 65 ft | 8 kts | 82° |
| 2026-05-05 07:42 | 42.79247 | 141.67591 | 67 ft | 8 kts | 83° |
| 2026-05-05 07:42 | 42.79253 | 141.67662 | 68 ft | 8 kts | 83° |
| 2026-05-05 07:42 | 42.79259 | 141.67733 | 68 ft | 8 kts | 82° |
| 2026-05-05 07:42 | 42.79266 | 141.67804 | 69 ft | 8 kts | 84° |
| 2026-05-05 07:43 | 42.79269 | 141.67878 | 65 ft | 9 kts | 90° |
| 2026-05-05 07:43 | 42.79265 | 141.67961 | 70 ft | 9 kts | 97° |
| 2026-05-05 07:43 | 42.79253 | 141.68046 | 64 ft | 9 kts | 102° |
| 2026-05-05 07:43 | 42.79236 | 141.68128 | 65 ft | 9 kts | 110° |
| 2026-05-05 07:44 | 42.79201 | 141.68231 | 66 ft | 14 kts | 119° |
| 2026-05-05 07:44 | 42.79148 | 141.68333 | 68 ft | 14 kts | 130° |
| 2026-05-05 07:44 | 42.79081 | 141.68424 | 64 ft | 14 kts | 140° |
| 2026-05-05 07:44 | 42.79008 | 141.68494 | 64 ft | 12 kts | 149° |
| 2026-05-05 07:45 | 42.78955 | 141.68537 | 67 ft | 9 kts | 140° |
| 2026-05-05 07:45 | 42.78940 | 141.68612 | 66 ft | 9 kts | 83° |
| 2026-05-05 07:45 | 42.78932 | 141.68694 | 70 ft | 9 kts | 118° |
| 2026-05-05 07:45 | 42.78888 | 141.68753 | 63 ft | 9 kts | 140° |
| 2026-05-05 07:46 | 42.78840 | 141.68805 | 65 ft | 9 kts | 149° |
| 2026-05-05 07:46 | 42.78770 | 141.68824 | 66 ft | 18 kts | 172° |
| 2026-05-05 07:46 | 42.78491 | 141.68872 | 62 ft | 75 kts | 172° |
| 2026-05-05 07:46 | 42.77730 | 141.69007 | 70 ft | 145 kts | 173° |
| 2026-05-05 07:47 | 42.76621 | 141.69220 | 431 ft | 166 kts | 171° |
| 2026-05-05 07:47 | 42.75480 | 141.69441 | 1200 ft | 171 kts | 175° |
| 2026-05-05 07:47 | 42.74274 | 141.69704 | 1792 ft | 185 kts | 175° |
| 2026-05-05 07:47 | 42.72945 | 141.69998 | 2219 ft | 204 kts | 177° |
| 2026-05-05 07:48 | 42.71468 | 141.70250 | 2573 ft | 227 kts | 179° |
| 2026-05-05 07:48 | 42.69861 | 141.70526 | 3244 ft | 239 kts | 179° |
| 2026-05-05 07:48 | 42.68192 | 141.70830 | 3935 ft | 250 kts | 180° |
| 2026-05-05 07:48 | 42.66491 | 141.71155 | 4784 ft | 256 kts | 181° |
| 2026-05-05 07:49 | 42.64689 | 141.71502 | 5660 ft | 265 kts | 181° |
| 2026-05-05 07:49 | 42.62890 | 141.71856 | 6529 ft | 271 kts | 180° |
| 2026-05-05 07:49 | 42.61003 | 141.72226 | 7278 ft | 278 kts | 180° |
| 2026-05-05 07:49 | 42.59087 | 141.72375 | 7885 ft | 274 kts | 198° |
| 2026-05-05 07:50 | 42.57437 | 141.71396 | 8539 ft | 262 kts | 226° |
| 2026-05-05 07:50 | 42.56247 | 141.69564 | 9290 ft | 258 kts | 243° |
| 2026-05-05 07:50 | 42.55380 | 141.67506 | 9984 ft | 263 kts | 246° |
| 2026-05-05 07:50 | 42.54495 | 141.65281 | 10528 ft | 277 kts | 247° |
| 2026-05-05 07:51 | 42.53594 | 141.62979 | 10721 ft | 302 kts | 246° |
| 2026-05-05 07:51 | 42.52535 | 141.60279 | 10932 ft | 330 kts | 246° |
| 2026-05-05 07:51 | 42.51420 | 141.57464 | 11472 ft | 345 kts | 245° |
| 2026-05-05 07:51 | 42.50290 | 141.54638 | 12327 ft | 352 kts | 245° |
| 2026-05-05 07:52 | 42.49112 | 141.51707 | 13362 ft | 356 kts | 245° |
| 2026-05-05 07:52 | 42.47920 | 141.48751 | 14357 ft | 360 kts | 245° |
| 2026-05-05 07:52 | 42.46736 | 141.45818 | 15256 ft | 364 kts | 245° |
| 2026-05-05 07:52 | 42.45512 | 141.42787 | 16160 ft | 369 kts | 245° |
| 2026-05-05 07:53 | 42.44316 | 141.39827 | 17017 ft | 374 kts | 245° |
| 2026-05-05 07:53 | 42.43062 | 141.36728 | 17935 ft | 378 kts | 245° |
| 2026-05-05 07:53 | 42.41816 | 141.33654 | 18749 ft | 382 kts | 245° |
| 2026-05-05 07:53 | 42.40531 | 141.30485 | 19585 ft | 385 kts | 246° |
| 2026-05-05 07:54 | 42.39237 | 141.27298 | 20411 ft | 388 kts | 246° |
| 2026-05-05 07:54 | 42.37956 | 141.24144 | 21171 ft | 392 kts | 246° |
| 2026-05-05 07:54 | 42.36635 | 141.20895 | 21935 ft | 396 kts | 246° |
| 2026-05-05 07:54 | 42.35328 | 141.17682 | 22656 ft | 400 kts | 246° |
| 2026-05-05 07:55 | 42.33994 | 141.14410 | 23367 ft | 404 kts | 246° |
| 2026-05-05 07:55 | 42.32630 | 141.11068 | 23965 ft | 409 kts | 246° |
| 2026-05-05 07:55 | 42.31268 | 141.07733 | 24452 ft | 415 kts | 246° |
| 2026-05-05 07:55 | 42.29859 | 141.04289 | 24952 ft | 421 kts | 246° |
| 2026-05-05 07:56 | 42.28460 | 141.00873 | 25450 ft | 426 kts | 246° |
| 2026-05-05 07:56 | 42.27015 | 140.97350 | 25954 ft | 431 kts | 246° |
| 2026-05-05 07:56 | 42.25568 | 140.93826 | 26438 ft | 436 kts | 246° |
| 2026-05-05 07:56 | 42.24095 | 140.90243 | 26908 ft | 442 kts | 246° |
| 2026-05-05 07:57 | 42.22620 | 140.86659 | 27368 ft | 446 kts | 246° |
| 2026-05-05 07:57 | 42.21131 | 140.83044 | 27809 ft | 451 kts | 247° |
| 2026-05-05 07:57 | 42.19597 | 140.79328 | 28249 ft | 455 kts | 247° |
| 2026-05-05 07:57 | 42.18050 | 140.75582 | 28675 ft | 460 kts | 247° |
| 2026-05-05 07:58 | 42.16511 | 140.71865 | 29085 ft | 464 kts | 247° |
| 2026-05-05 07:58 | 42.14935 | 140.68059 | 29459 ft | 467 kts | 246° |
| 2026-05-05 07:58 | 42.13343 | 140.64222 | 29820 ft | 471 kts | 246° |
| 2026-05-05 07:58 | 42.11770 | 140.60433 | 30195 ft | 473 kts | 246° |
| 2026-05-05 07:59 | 42.10172 | 140.56630 | 30672 ft | 469 kts | 244° |
| 2026-05-05 07:59 | 42.08144 | 140.53221 | 30977 ft | 486 kts | 228° |
| 2026-05-05 07:59 | 42.05365 | 140.50550 | 31390 ft | 499 kts | 213° |
| 2026-05-05 07:59 | 42.02087 | 140.48913 | 31828 ft | 506 kts | 200° |
| 2026-05-05 08:00 | 41.98738 | 140.47757 | 32118 ft | 509 kts | 199° |
| 2026-05-05 08:00 | 41.95305 | 140.46581 | 32496 ft | 509 kts | 199° |
| 2026-05-05 08:00 | 41.91953 | 140.45406 | 32984 ft | 506 kts | 200° |
| 2026-05-05 08:00 | 41.88604 | 140.44200 | 33499 ft | 503 kts | 200° |
| 2026-05-05 08:01 | 41.85303 | 140.42986 | 33977 ft | 501 kts | 201° |
| 2026-05-05 08:01 | 41.81952 | 140.41738 | 34412 ft | 498 kts | 201° |
| 2026-05-05 08:01 | 41.78630 | 140.40497 | 34921 ft | 493 kts | 201° |
| 2026-05-05 08:01 | 41.75407 | 140.39294 | 35401 ft | 489 kts | 201° |
| 2026-05-05 08:02 | 41.72145 | 140.38079 | 35854 ft | 485 kts | 201° |
| 2026-05-05 08:02 | 41.68889 | 140.36868 | 36057 ft | 486 kts | 201° |
| 2026-05-05 08:02 | 41.62416 | 140.34467 | 36033 ft | 486 kts | 201° |
| 2026-05-05 08:03 | 41.56011 | 140.32103 | 36040 ft | 483 kts | 201° |
| 2026-05-05 08:03 | 41.49612 | 140.29746 | 36040 ft | 482 kts | 201° |
| 2026-05-05 08:04 | 41.43217 | 140.27393 | 36054 ft | 480 kts | 201° |
| 2026-05-05 08:04 | 41.36778 | 140.25028 | 36056 ft | 480 kts | 201° |
| 2026-05-05 08:05 | 41.30441 | 140.22705 | 36063 ft | 480 kts | 201° |
| 2026-05-05 08:05 | 41.24071 | 140.20375 | 36061 ft | 480 kts | 201° |
| 2026-05-05 08:06 | 41.17678 | 140.18041 | 36066 ft | 481 kts | 201° |
| 2026-05-05 08:06 | 41.11294 | 140.15728 | 36064 ft | 481 kts | 200° |
| 2026-05-05 08:07 | 41.04809 | 140.13479 | 36072 ft | 482 kts | 200° |
| 2026-05-05 08:07 | 40.98426 | 140.11293 | 36070 ft | 482 kts | 200° |
| 2026-05-05 08:08 | 40.92006 | 140.09086 | 36076 ft | 481 kts | 200° |
| 2026-05-05 08:08 | 40.85590 | 140.06876 | 36081 ft | 481 kts | 200° |
| 2026-05-05 08:09 | 40.79149 | 140.04660 | 36085 ft | 480 kts | 200° |
| 2026-05-05 08:09 | 40.72756 | 140.02466 | 36100 ft | 480 kts | 200° |
| 2026-05-05 08:10 | 40.66363 | 140.00276 | 36098 ft | 479 kts | 200° |
| 2026-05-05 08:10 | 40.59964 | 139.98089 | 36109 ft | 479 kts | 200° |
| 2026-05-05 08:11 | 40.53571 | 139.95907 | 36112 ft | 479 kts | 200° |
| 2026-05-05 08:11 | 40.47195 | 139.93730 | 36114 ft | 477 kts | 201° |
| 2026-05-05 08:12 | 40.41098 | 139.90711 | 36117 ft | 467 kts | 213° |
| 2026-05-05 08:12 | 40.35416 | 139.86814 | 36124 ft | 465 kts | 213° |
| 2026-05-05 08:13 | 40.29726 | 139.82926 | 36125 ft | 465 kts | 213° |
| 2026-05-05 08:13 | 40.24021 | 139.79082 | 36124 ft | 465 kts | 213° |
| 2026-05-05 08:14 | 40.18358 | 139.75288 | 36136 ft | 465 kts | 213° |
| 2026-05-05 08:14 | 40.12666 | 139.71480 | 36128 ft | 465 kts | 213° |
| 2026-05-05 08:15 | 40.06891 | 139.67621 | 36133 ft | 465 kts | 213° |
| 2026-05-05 08:15 | 40.01167 | 139.63838 | 36130 ft | 466 kts | 212° |
| 2026-05-05 08:16 | 39.95423 | 139.60111 | 36139 ft | 466 kts | 212° |
| 2026-05-05 08:16 | 39.89721 | 139.56423 | 36138 ft | 466 kts | 212° |
| 2026-05-05 08:17 | 39.83943 | 139.52682 | 36143 ft | 466 kts | 212° |
| 2026-05-05 08:17 | 39.78165 | 139.48943 | 36139 ft | 466 kts | 212° |
| 2026-05-05 08:18 | 39.72450 | 139.45251 | 36142 ft | 466 kts | 212° |
| 2026-05-05 08:18 | 39.66702 | 139.41544 | 36145 ft | 466 kts | 212° |
| 2026-05-05 08:19 | 39.61042 | 139.37902 | 36145 ft | 466 kts | 212° |
| 2026-05-05 08:19 | 39.55147 | 139.34116 | 36148 ft | 465 kts | 212° |
| 2026-05-05 08:20 | 39.49446 | 139.30461 | 36151 ft | 465 kts | 212° |
| 2026-05-05 08:20 | 39.43692 | 139.26779 | 36150 ft | 464 kts | 212° |
| 2026-05-05 08:21 | 39.37954 | 139.23115 | 36154 ft | 463 kts | 212° |
| 2026-05-05 08:21 | 39.32237 | 139.19469 | 36150 ft | 462 kts | 212° |
| 2026-05-05 08:22 | 39.26527 | 139.15836 | 36153 ft | 461 kts | 212° |
| 2026-05-05 08:22 | 39.20819 | 139.12210 | 36154 ft | 460 kts | 212° |
| 2026-05-05 08:23 | 39.15135 | 139.08605 | 36158 ft | 458 kts | 212° |
| 2026-05-05 08:23 | 39.09476 | 139.05024 | 36162 ft | 457 kts | 212° |
| 2026-05-05 08:24 | 39.03883 | 139.01490 | 36161 ft | 456 kts | 212° |
| 2026-05-05 08:24 | 38.98171 | 138.97888 | 36164 ft | 455 kts | 212° |
| 2026-05-05 08:25 | 38.92543 | 138.94345 | 36166 ft | 454 kts | 212° |
| 2026-05-05 08:25 | 38.86931 | 138.90818 | 36161 ft | 452 kts | 212° |
| 2026-05-05 08:26 | 38.81330 | 138.87304 | 36163 ft | 451 kts | 212° |
| 2026-05-05 08:26 | 38.75851 | 138.83873 | 36164 ft | 450 kts | 212° |
| 2026-05-05 08:27 | 38.70170 | 138.80321 | 36167 ft | 449 kts | 212° |
| 2026-05-05 08:27 | 38.64615 | 138.76855 | 36166 ft | 448 kts | 212° |
| 2026-05-05 08:28 | 38.59021 | 138.73370 | 36165 ft | 447 kts | 212° |
| 2026-05-05 08:28 | 38.53487 | 138.69928 | 36163 ft | 446 kts | 212° |
| 2026-05-05 08:29 | 38.48005 | 138.66525 | 36166 ft | 445 kts | 212° |
| 2026-05-05 08:30 | 38.39723 | 138.61393 | 36165 ft | 444 kts | 212° |
| 2026-05-05 08:30 | 38.34224 | 138.57994 | 36164 ft | 443 kts | 212° |
| 2026-05-05 08:31 | 38.28728 | 138.54602 | 36156 ft | 442 kts | 212° |
| 2026-05-05 08:31 | 38.23286 | 138.51248 | 36165 ft | 441 kts | 212° |
| 2026-05-05 08:32 | 38.17767 | 138.47852 | 36168 ft | 441 kts | 212° |
| 2026-05-05 08:32 | 38.12297 | 138.44493 | 36165 ft | 440 kts | 212° |
| 2026-05-05 08:33 | 38.07437 | 138.40317 | 36177 ft | 425 kts | 229° |
| 2026-05-05 08:33 | 38.03701 | 138.34693 | 36144 ft | 417 kts | 242° |
| 2026-05-05 08:34 | 38.00932 | 138.28315 | 36170 ft | 418 kts | 244° |
| 2026-05-05 08:34 | 37.98131 | 138.21834 | 36167 ft | 420 kts | 243° |
| 2026-05-05 08:35 | 37.95323 | 138.15461 | 36166 ft | 421 kts | 243° |
| 2026-05-05 08:35 | 37.92481 | 138.09052 | 36168 ft | 421 kts | 243° |
| 2026-05-05 08:36 | 37.89629 | 138.02636 | 36170 ft | 421 kts | 243° |
| 2026-05-05 08:36 | 37.86775 | 137.96227 | 36167 ft | 421 kts | 243° |
| 2026-05-05 08:37 | 37.83944 | 137.89878 | 36170 ft | 421 kts | 243° |
| 2026-05-05 08:37 | 37.81067 | 137.83439 | 36169 ft | 420 kts | 243° |
| 2026-05-05 08:38 | 37.78187 | 137.77005 | 36168 ft | 420 kts | 243° |
| 2026-05-05 08:38 | 37.75412 | 137.70817 | 36165 ft | 420 kts | 243° |
| 2026-05-05 08:39 | 37.72549 | 137.64446 | 36168 ft | 420 kts | 243° |
| 2026-05-05 08:39 | 37.69660 | 137.58031 | 36166 ft | 420 kts | 243° |
| 2026-05-05 08:40 | 37.66772 | 137.51629 | 36167 ft | 420 kts | 243° |
| 2026-05-05 08:40 | 37.63878 | 137.45226 | 36164 ft | 420 kts | 243° |
| 2026-05-05 08:41 | 37.60978 | 137.38823 | 36166 ft | 420 kts | 242° |
| 2026-05-05 08:41 | 37.58094 | 137.32470 | 36166 ft | 420 kts | 242° |
| 2026-05-05 08:42 | 37.55188 | 137.26078 | 36166 ft | 420 kts | 242° |
| 2026-05-05 08:42 | 37.52278 | 137.19691 | 36158 ft | 420 kts | 242° |
| 2026-05-05 08:43 | 37.49363 | 137.13305 | 36153 ft | 421 kts | 242° |
| 2026-05-05 08:43 | 37.46463 | 137.06965 | 36144 ft | 421 kts | 242° |
| 2026-05-05 08:44 | 37.43538 | 137.00582 | 36137 ft | 421 kts | 242° |
| 2026-05-05 08:44 | 37.40611 | 136.94210 | 36133 ft | 421 kts | 242° |
| 2026-05-05 08:45 | 37.37683 | 136.87844 | 36134 ft | 421 kts | 242° |
| 2026-05-05 08:45 | 37.34770 | 136.81527 | 36142 ft | 420 kts | 242° |
| 2026-05-05 08:46 | 37.31838 | 136.75177 | 36142 ft | 420 kts | 242° |
| 2026-05-05 08:46 | 37.28899 | 136.68824 | 36138 ft | 421 kts | 242° |
| 2026-05-05 08:47 | 37.25956 | 136.62477 | 36153 ft | 420 kts | 242° |
| 2026-05-05 08:47 | 37.23035 | 136.56190 | 36170 ft | 420 kts | 242° |
| 2026-05-05 08:48 | 37.20093 | 136.49868 | 36166 ft | 420 kts | 242° |
| 2026-05-05 08:48 | 37.17147 | 136.43550 | 36166 ft | 419 kts | 242° |
| 2026-05-05 08:49 | 37.14201 | 136.37245 | 36168 ft | 419 kts | 242° |
| 2026-05-05 08:49 | 37.11275 | 136.30995 | 36169 ft | 419 kts | 242° |
| 2026-05-05 08:50 | 37.08326 | 136.24705 | 36171 ft | 418 kts | 242° |
| 2026-05-05 08:50 | 37.05374 | 136.18423 | 36167 ft | 419 kts | 242° |
| 2026-05-05 08:51 | 37.02421 | 136.12147 | 36167 ft | 419 kts | 242° |
| 2026-05-05 08:51 | 36.99484 | 136.05916 | 36167 ft | 418 kts | 242° |
| 2026-05-05 08:52 | 36.96522 | 135.99653 | 36167 ft | 418 kts | 242° |
| 2026-05-05 08:52 | 36.93555 | 135.93393 | 36165 ft | 418 kts | 241° |
| 2026-05-05 08:53 | 36.90609 | 135.87184 | 36166 ft | 418 kts | 241° |
| 2026-05-05 08:53 | 36.87641 | 135.80940 | 36167 ft | 418 kts | 241° |
| 2026-05-05 08:54 | 36.84674 | 135.74710 | 36170 ft | 417 kts | 241° |
| 2026-05-05 08:54 | 36.81705 | 135.68485 | 36164 ft | 417 kts | 241° |
| 2026-05-05 08:55 | 36.78738 | 135.62276 | 36166 ft | 416 kts | 241° |
| 2026-05-05 08:55 | 36.75784 | 135.56106 | 36163 ft | 416 kts | 241° |
| 2026-05-05 08:56 | 36.72814 | 135.49917 | 36164 ft | 416 kts | 241° |
| 2026-05-05 08:56 | 36.69845 | 135.43737 | 36167 ft | 415 kts | 241° |
| 2026-05-05 08:57 | 36.66875 | 135.37569 | 36169 ft | 415 kts | 241° |
| 2026-05-05 08:57 | 36.63919 | 135.31442 | 36164 ft | 415 kts | 241° |
| 2026-05-05 08:58 | 36.60941 | 135.25278 | 36171 ft | 415 kts | 241° |
| 2026-05-05 08:58 | 36.57961 | 135.19123 | 36163 ft | 415 kts | 241° |
| 2026-05-05 08:59 | 36.54983 | 135.12984 | 36160 ft | 415 kts | 241° |
| 2026-05-05 08:59 | 36.52000 | 135.06845 | 36158 ft | 414 kts | 241° |
| 2026-05-05 09:00 | 36.49044 | 135.00771 | 36157 ft | 413 kts | 241° |
| 2026-05-05 09:00 | 36.46071 | 134.94675 | 36159 ft | 412 kts | 240° |
| 2026-05-05 09:01 | 36.43100 | 134.88593 | 36153 ft | 411 kts | 240° |
| 2026-05-05 09:01 | 36.40130 | 134.82525 | 36153 ft | 411 kts | 240° |
| 2026-05-05 09:02 | 36.37183 | 134.76513 | 36159 ft | 410 kts | 240° |
| 2026-05-05 09:02 | 36.34215 | 134.70470 | 36166 ft | 410 kts | 240° |
| 2026-05-05 09:03 | 36.31243 | 134.64429 | 36154 ft | 410 kts | 240° |
| 2026-05-05 09:03 | 36.28266 | 134.58387 | 36157 ft | 411 kts | 240° |
| 2026-05-05 09:04 | 36.25304 | 134.52387 | 36152 ft | 411 kts | 240° |
| 2026-05-05 09:04 | 36.22320 | 134.46359 | 36155 ft | 411 kts | 240° |
| 2026-05-05 09:05 | 36.19330 | 134.40332 | 36154 ft | 410 kts | 240° |
| 2026-05-05 09:05 | 36.16344 | 134.34322 | 36155 ft | 410 kts | 240° |
| 2026-05-05 09:06 | 36.13376 | 134.28356 | 36153 ft | 409 kts | 240° |
| 2026-05-05 09:06 | 36.10391 | 134.22365 | 36155 ft | 409 kts | 240° |
| 2026-05-05 09:07 | 36.07408 | 134.16388 | 36153 ft | 408 kts | 240° |
| 2026-05-05 09:07 | 36.04426 | 134.10426 | 36155 ft | 408 kts | 240° |
| 2026-05-05 09:08 | 36.01464 | 134.04512 | 36155 ft | 407 kts | 240° |
| 2026-05-05 09:08 | 35.98484 | 133.98569 | 36151 ft | 407 kts | 240° |
| 2026-05-05 09:09 | 35.95496 | 133.92627 | 36152 ft | 407 kts | 240° |
| 2026-05-05 09:09 | 35.92504 | 133.86689 | 36149 ft | 407 kts | 240° |
| 2026-05-05 09:10 | 35.89509 | 133.80756 | 36151 ft | 407 kts | 240° |
| 2026-05-05 09:10 | 35.86532 | 133.74864 | 36149 ft | 407 kts | 240° |
| 2026-05-05 09:11 | 35.83538 | 133.68948 | 36156 ft | 407 kts | 240° |
| 2026-05-05 09:11 | 35.80538 | 133.63031 | 36149 ft | 407 kts | 240° |
| 2026-05-05 09:12 | 35.77538 | 133.57125 | 36147 ft | 406 kts | 239° |
| 2026-05-05 09:12 | 35.74559 | 133.51268 | 36153 ft | 406 kts | 239° |
| 2026-05-05 09:13 | 35.71561 | 133.45384 | 36143 ft | 406 kts | 239° |
| 2026-05-05 09:13 | 35.68560 | 133.39505 | 36140 ft | 406 kts | 239° |
| 2026-05-05 09:14 | 35.65558 | 133.33634 | 36136 ft | 406 kts | 239° |
| 2026-05-05 09:14 | 35.62569 | 133.27797 | 36130 ft | 406 kts | 239° |
| 2026-05-05 09:15 | 35.59561 | 133.21932 | 36133 ft | 406 kts | 239° |
| 2026-05-05 09:15 | 35.56548 | 133.16068 | 36131 ft | 406 kts | 239° |
| 2026-05-05 09:16 | 35.52913 | 133.10756 | 36142 ft | 410 kts | 227° |
| 2026-05-05 09:16 | 35.48471 | 133.06320 | 36129 ft | 416 kts | 218° |
| 2026-05-05 09:17 | 35.43387 | 133.02935 | 36091 ft | 419 kts | 214° |
| 2026-05-05 09:17 | 35.38228 | 132.99652 | 36098 ft | 417 kts | 214° |
| 2026-05-05 09:18 | 35.33100 | 132.96340 | 36099 ft | 416 kts | 214° |
| 2026-05-05 09:18 | 35.27999 | 132.93021 | 36103 ft | 414 kts | 215° |
| 2026-05-05 09:19 | 35.22956 | 132.89740 | 36118 ft | 413 kts | 214° |
| 2026-05-05 09:19 | 35.17893 | 132.86454 | 36126 ft | 411 kts | 215° |
| 2026-05-05 09:20 | 35.12857 | 132.83141 | 36131 ft | 410 kts | 215° |
| 2026-05-05 09:20 | 35.07841 | 132.79821 | 36127 ft | 410 kts | 215° |
| 2026-05-05 09:21 | 35.02862 | 132.76539 | 36134 ft | 409 kts | 215° |
| 2026-05-05 09:21 | 34.97866 | 132.73253 | 36136 ft | 408 kts | 215° |
| 2026-05-05 09:22 | 34.92882 | 132.69980 | 36138 ft | 406 kts | 215° |
| 2026-05-05 09:22 | 34.87901 | 132.66713 | 36139 ft | 406 kts | 215° |
| 2026-05-05 09:23 | 34.82935 | 132.63458 | 36134 ft | 405 kts | 215° |
| 2026-05-05 09:23 | 34.78007 | 132.60234 | 36145 ft | 405 kts | 215° |
| 2026-05-05 09:24 | 34.73043 | 132.56988 | 36146 ft | 405 kts | 216° |
| 2026-05-05 09:24 | 34.68078 | 132.53746 | 36140 ft | 405 kts | 215° |
| 2026-05-05 09:25 | 34.63111 | 132.50510 | 36137 ft | 405 kts | 215° |
| 2026-05-05 09:25 | 34.58186 | 132.47303 | 36150 ft | 404 kts | 215° |
| 2026-05-05 09:26 | 34.53225 | 132.44079 | 36143 ft | 405 kts | 215° |
| 2026-05-05 09:26 | 34.48260 | 132.40855 | 36148 ft | 405 kts | 215° |
| 2026-05-05 09:27 | 34.43293 | 132.37634 | 36154 ft | 404 kts | 215° |
| 2026-05-05 09:27 | 34.38374 | 132.34447 | 36144 ft | 403 kts | 215° |
| 2026-05-05 09:28 | 34.33434 | 132.31236 | 36148 ft | 403 kts | 215° |
| 2026-05-05 09:28 | 34.28500 | 132.28030 | 36146 ft | 402 kts | 215° |
| 2026-05-05 09:29 | 34.23565 | 132.24830 | 36146 ft | 402 kts | 215° |
| 2026-05-05 09:29 | 34.18663 | 132.21655 | 36142 ft | 403 kts | 215° |
| 2026-05-05 09:30 | 34.13727 | 132.18462 | 36141 ft | 403 kts | 215° |
| 2026-05-05 09:30 | 34.08786 | 132.15275 | 36133 ft | 403 kts | 214° |
| 2026-05-05 09:31 | 34.03646 | 132.12459 | 36146 ft | 407 kts | 211° |
| 2026-05-05 09:31 | 33.98465 | 132.09784 | 36144 ft | 407 kts | 211° |
| 2026-05-05 09:32 | 33.93263 | 132.07078 | 36142 ft | 407 kts | 211° |
| 2026-05-05 09:32 | 33.88066 | 132.04380 | 36151 ft | 407 kts | 211° |
| 2026-05-05 09:33 | 33.82872 | 132.01691 | 36142 ft | 406 kts | 211° |
| 2026-05-05 09:33 | 33.77678 | 131.99005 | 36144 ft | 406 kts | 211° |
| 2026-05-05 09:34 | 33.72532 | 131.96341 | 36140 ft | 405 kts | 211° |
| 2026-05-05 09:34 | 33.67358 | 131.93660 | 36137 ft | 405 kts | 211° |
| 2026-05-05 09:35 | 33.62178 | 131.90979 | 36135 ft | 405 kts | 211° |
| 2026-05-05 09:35 | 33.54449 | 131.86987 | 36131 ft | 405 kts | 211° |
| 2026-05-05 09:36 | 33.49273 | 131.84318 | 36129 ft | 405 kts | 211° |
| 2026-05-05 09:36 | 33.44091 | 131.81649 | 36123 ft | 405 kts | 211° |
| 2026-05-05 09:37 | 33.38915 | 131.78986 | 36127 ft | 405 kts | 211° |
| 2026-05-05 09:37 | 33.33773 | 131.76344 | 36129 ft | 405 kts | 211° |
| 2026-05-05 09:38 | 33.28594 | 131.73687 | 36130 ft | 405 kts | 211° |
| 2026-05-05 09:38 | 33.23428 | 131.71020 | 36133 ft | 403 kts | 212° |
| 2026-05-05 09:39 | 33.18575 | 131.67786 | 36143 ft | 397 kts | 218° |
| 2026-05-05 09:39 | 33.13922 | 131.64299 | 36142 ft | 398 kts | 218° |
| 2026-05-05 09:40 | 33.09230 | 131.60815 | 36145 ft | 397 kts | 218° |
| 2026-05-05 09:40 | 33.04543 | 131.57342 | 36148 ft | 397 kts | 217° |
| 2026-05-05 09:41 | 32.99855 | 131.53871 | 36146 ft | 397 kts | 218° |
| 2026-05-05 09:41 | 32.95157 | 131.50395 | 36150 ft | 398 kts | 218° |
| 2026-05-05 09:42 | 32.90474 | 131.46936 | 36141 ft | 399 kts | 218° |
| 2026-05-05 09:42 | 32.85752 | 131.43452 | 36142 ft | 400 kts | 217° |
| 2026-05-05 09:43 | 32.81023 | 131.39968 | 36136 ft | 400 kts | 217° |
| 2026-05-05 09:43 | 32.76325 | 131.36458 | 36159 ft | 398 kts | 218° |
| 2026-05-05 09:44 | 32.71660 | 131.32960 | 36165 ft | 399 kts | 218° |
| 2026-05-05 09:44 | 32.66962 | 131.29445 | 36156 ft | 399 kts | 218° |
| 2026-05-05 09:45 | 32.62271 | 131.25946 | 36164 ft | 398 kts | 217° |
| 2026-05-05 09:45 | 32.57580 | 131.22451 | 36165 ft | 400 kts | 217° |
| 2026-05-05 09:46 | 32.52908 | 131.18975 | 36160 ft | 400 kts | 217° |
| 2026-05-05 09:46 | 32.48207 | 131.15482 | 36167 ft | 398 kts | 218° |
| 2026-05-05 09:47 | 32.43523 | 131.12003 | 36165 ft | 397 kts | 217° |
| 2026-05-05 09:47 | 32.38833 | 131.08548 | 36176 ft | 396 kts | 217° |
| 2026-05-05 09:48 | 32.34137 | 131.05151 | 36175 ft | 401 kts | 217° |
| 2026-05-05 09:48 | 32.29364 | 131.01703 | 36178 ft | 402 kts | 217° |
| 2026-05-05 09:49 | 32.24570 | 130.98241 | 36160 ft | 405 kts | 217° |
| 2026-05-05 09:49 | 32.19755 | 130.94764 | 36161 ft | 406 kts | 217° |
| 2026-05-05 09:50 | 32.14972 | 130.91315 | 36173 ft | 405 kts | 217° |
| 2026-05-05 09:50 | 32.10164 | 130.87832 | 36167 ft | 405 kts | 217° |
| 2026-05-05 09:51 | 32.05381 | 130.84322 | 36159 ft | 405 kts | 217° |
| 2026-05-05 09:51 | 32.00601 | 130.80814 | 36151 ft | 404 kts | 217° |
| 2026-05-05 09:52 | 31.95863 | 130.77346 | 36162 ft | 403 kts | 217° |
| 2026-05-05 09:52 | 31.91088 | 130.73854 | 36148 ft | 405 kts | 217° |
| 2026-05-05 09:53 | 31.86302 | 130.70363 | 36157 ft | 404 kts | 217° |
| 2026-05-05 09:53 | 31.81527 | 130.66882 | 36159 ft | 404 kts | 217° |
| 2026-05-05 09:54 | 31.76772 | 130.63420 | 36163 ft | 405 kts | 217° |
| 2026-05-05 09:54 | 31.72138 | 130.59715 | 36156 ft | 400 kts | 224° |
| 2026-05-05 09:55 | 31.68046 | 130.55310 | 36156 ft | 399 kts | 228° |
| 2026-05-05 09:55 | 31.64444 | 130.50379 | 36156 ft | 398 kts | 234° |
| 2026-05-05 09:56 | 31.61100 | 130.45248 | 36150 ft | 399 kts | 234° |
| 2026-05-05 09:56 | 31.57722 | 130.40072 | 36151 ft | 400 kts | 234° |
| 2026-05-05 09:57 | 31.54324 | 130.34902 | 36158 ft | 401 kts | 234° |
| 2026-05-05 09:57 | 31.50907 | 130.29725 | 36139 ft | 402 kts | 234° |
| 2026-05-05 09:58 | 31.47507 | 130.24582 | 36143 ft | 402 kts | 234° |
| 2026-05-05 09:58 | 31.44084 | 130.19410 | 36145 ft | 402 kts | 234° |
| 2026-05-05 09:59 | 31.40657 | 130.14239 | 36141 ft | 403 kts | 234° |
| 2026-05-05 09:59 | 31.37223 | 130.09065 | 36134 ft | 402 kts | 234° |
| 2026-05-05 10:00 | 31.33815 | 130.03935 | 36136 ft | 402 kts | 234° |
| 2026-05-05 10:00 | 31.30383 | 129.98776 | 36139 ft | 402 kts | 234° |
| 2026-05-05 10:01 | 31.26951 | 129.93627 | 36139 ft | 402 kts | 234° |
| 2026-05-05 10:01 | 31.23512 | 129.88478 | 36137 ft | 402 kts | 234° |
| 2026-05-05 10:02 | 31.20075 | 129.83336 | 36141 ft | 402 kts | 234° |
| 2026-05-05 10:02 | 31.16655 | 129.78225 | 36139 ft | 402 kts | 234° |
| 2026-05-05 10:03 | 31.13204 | 129.73074 | 36136 ft | 403 kts | 234° |
| 2026-05-05 10:03 | 31.09751 | 129.67927 | 36135 ft | 403 kts | 234° |
| 2026-05-05 10:04 | 31.06296 | 129.62784 | 36134 ft | 403 kts | 234° |
| 2026-05-05 10:04 | 31.02864 | 129.57682 | 36135 ft | 403 kts | 234° |
| 2026-05-05 10:05 | 30.99406 | 129.52548 | 36134 ft | 402 kts | 234° |
| 2026-05-05 10:05 | 30.95947 | 129.47418 | 36136 ft | 402 kts | 234° |
| 2026-05-05 10:06 | 30.92488 | 129.42295 | 36135 ft | 402 kts | 234° |
| 2026-05-05 10:06 | 30.89051 | 129.37210 | 36132 ft | 402 kts | 234° |
| 2026-05-05 10:07 | 30.85587 | 129.32093 | 36132 ft | 402 kts | 234° |
| 2026-05-05 10:07 | 30.82124 | 129.26982 | 36131 ft | 402 kts | 234° |
| 2026-05-05 10:08 | 30.78662 | 129.21881 | 36133 ft | 402 kts | 234° |
| 2026-05-05 10:08 | 30.75247 | 129.16793 | 36132 ft | 402 kts | 234° |
| 2026-05-05 10:09 | 30.71865 | 129.11628 | 36133 ft | 402 kts | 235° |
| 2026-05-05 10:09 | 30.68482 | 129.06459 | 36133 ft | 402 kts | 235° |
| 2026-05-05 10:10 | 30.65091 | 129.01297 | 36134 ft | 402 kts | 234° |
| 2026-05-05 10:10 | 30.61692 | 128.96138 | 36131 ft | 402 kts | 234° |
| 2026-05-05 10:11 | 30.58308 | 128.91011 | 36130 ft | 403 kts | 234° |
| 2026-05-05 10:11 | 30.54897 | 128.85849 | 36128 ft | 403 kts | 234° |
| 2026-05-05 10:12 | 30.51483 | 128.80688 | 36131 ft | 403 kts | 234° |
| 2026-05-05 10:12 | 30.48063 | 128.75527 | 36130 ft | 404 kts | 234° |
| 2026-05-05 10:13 | 30.44664 | 128.70402 | 36128 ft | 404 kts | 234° |
| 2026-05-05 10:13 | 30.41239 | 128.65245 | 36125 ft | 404 kts | 234° |
| 2026-05-05 10:14 | 30.37811 | 128.60090 | 36124 ft | 404 kts | 234° |
| 2026-05-05 10:14 | 30.34378 | 128.54936 | 36128 ft | 404 kts | 234° |
| 2026-05-05 10:15 | 30.30969 | 128.49823 | 36127 ft | 404 kts | 234° |
| 2026-05-05 10:15 | 30.27534 | 128.44678 | 36126 ft | 404 kts | 234° |
| 2026-05-05 10:16 | 30.24099 | 128.39539 | 36127 ft | 404 kts | 234° |
| 2026-05-05 10:16 | 30.20661 | 128.34403 | 36125 ft | 404 kts | 234° |
| 2026-05-05 10:17 | 30.17246 | 128.29307 | 36126 ft | 404 kts | 234° |
| 2026-05-05 10:17 | 30.13806 | 128.24181 | 36125 ft | 404 kts | 234° |
| 2026-05-05 10:18 | 30.10364 | 128.19058 | 36122 ft | 403 kts | 234° |
| 2026-05-05 10:18 | 30.06920 | 128.13939 | 36122 ft | 403 kts | 234° |
| 2026-05-05 10:19 | 30.03478 | 128.08828 | 36122 ft | 403 kts | 234° |
| 2026-05-05 10:19 | 30.00056 | 128.03754 | 36116 ft | 403 kts | 234° |
| 2026-05-05 10:20 | 29.96609 | 127.98649 | 36116 ft | 403 kts | 234° |
| 2026-05-05 10:20 | 29.93158 | 127.93545 | 36135 ft | 403 kts | 234° |
| 2026-05-05 10:21 | 29.89706 | 127.88442 | 36134 ft | 404 kts | 234° |
| 2026-05-05 10:21 | 29.86272 | 127.83379 | 36118 ft | 404 kts | 233° |
| 2026-05-05 10:22 | 29.82655 | 127.78425 | 36124 ft | 405 kts | 231° |
| 2026-05-05 10:22 | 29.78958 | 127.73539 | 36115 ft | 405 kts | 231° |
| 2026-05-05 10:23 | 29.75897 | 127.69466 | 36119 ft | 405 kts | 232° |
| 2026-05-05 10:23 | 29.72226 | 127.64555 | 36111 ft | 405 kts | 232° |
| 2026-05-05 10:24 | 29.67966 | 127.58850 | 36116 ft | 405 kts | 232° |
| 2026-05-05 10:24 | 29.64298 | 127.53945 | 36116 ft | 405 kts | 232° |
| 2026-05-05 10:25 | 29.61246 | 127.49868 | 36120 ft | 405 kts | 232° |
| 2026-05-05 10:25 | 29.57591 | 127.44957 | 36121 ft | 404 kts | 233° |
| 2026-05-05 10:26 | 29.53531 | 127.39084 | 36119 ft | 404 kts | 234° |
| 2026-05-05 10:26 | 29.50066 | 127.34006 | 36114 ft | 404 kts | 234° |
| 2026-05-05 10:27 | 29.47171 | 127.29795 | 36114 ft | 404 kts | 233° |
| 2026-05-05 10:27 | 29.43678 | 127.24743 | 36109 ft | 404 kts | 233° |
| 2026-05-05 10:28 | 29.39608 | 127.18873 | 36107 ft | 404 kts | 233° |
| 2026-05-05 10:28 | 29.36675 | 127.14651 | 36108 ft | 404 kts | 233° |
| 2026-05-05 10:29 | 29.33196 | 127.09646 | 36111 ft | 404 kts | 233° |
| 2026-05-05 10:29 | 29.29692 | 127.04611 | 36109 ft | 404 kts | 233° |
| 2026-05-05 10:30 | 29.25622 | 126.98770 | 36110 ft | 404 kts | 233° |
| 2026-05-05 10:30 | 29.22684 | 126.94559 | 36109 ft | 404 kts | 233° |
| 2026-05-05 10:31 | 29.19188 | 126.89553 | 36110 ft | 404 kts | 233° |
| 2026-05-05 10:31 | 29.15674 | 126.84529 | 36112 ft | 404 kts | 233° |
| 2026-05-05 10:32 | 29.12158 | 126.79507 | 36110 ft | 404 kts | 233° |
| 2026-05-05 10:32 | 29.08640 | 126.74488 | 36107 ft | 404 kts | 233° |
| 2026-05-05 10:33 | 29.05121 | 126.69473 | 36105 ft | 405 kts | 233° |
| 2026-05-05 10:33 | 29.01622 | 126.64492 | 36109 ft | 405 kts | 233° |
| 2026-05-05 10:34 | 28.98095 | 126.59479 | 36108 ft | 405 kts | 233° |
| 2026-05-05 10:34 | 28.94519 | 126.54507 | 36112 ft | 405 kts | 232° |
| 2026-05-05 10:35 | 28.90859 | 126.49598 | 36109 ft | 406 kts | 232° |
| 2026-05-05 10:35 | 28.87225 | 126.44725 | 36108 ft | 406 kts | 232° |
| 2026-05-05 10:36 | 28.83577 | 126.39820 | 36107 ft | 406 kts | 232° |
| 2026-05-05 10:36 | 28.79920 | 126.34899 | 36108 ft | 406 kts | 232° |
| 2026-05-05 10:37 | 28.76260 | 126.29980 | 36249 ft | 407 kts | 232° |
| 2026-05-05 10:37 | 28.74432 | 126.27525 | 36609 ft | 405 kts | 232° |
| 2026-05-05 10:37 | 28.72615 | 126.25086 | 36985 ft | 403 kts | 232° |
| 2026-05-05 10:38 | 28.70829 | 126.22692 | 37306 ft | 401 kts | 232° |
| 2026-05-05 10:38 | 28.69024 | 126.20270 | 37595 ft | 401 kts | 232° |
| 2026-05-05 10:38 | 28.67218 | 126.17850 | 37885 ft | 400 kts | 232° |
| 2026-05-05 10:38 | 28.65410 | 126.15428 | 38005 ft | 403 kts | 232° |
| 2026-05-05 10:39 | 28.61804 | 126.10536 | 38097 ft | 401 kts | 233° |
| 2026-05-05 10:39 | 28.58341 | 126.05638 | 38098 ft | 394 kts | 233° |
| 2026-05-05 10:40 | 28.54942 | 126.00810 | 38104 ft | 393 kts | 233° |
| 2026-05-05 10:40 | 28.51522 | 125.95975 | 38107 ft | 393 kts | 233° |
| 2026-05-05 10:41 | 28.48086 | 125.91134 | 38105 ft | 394 kts | 233° |
| 2026-05-05 10:41 | 28.44634 | 125.86281 | 38102 ft | 395 kts | 233° |
| 2026-05-05 10:42 | 28.39454 | 125.79012 | 38107 ft | 397 kts | 233° |
| 2026-05-05 10:43 | 28.35969 | 125.74129 | 38104 ft | 398 kts | 233° |
| 2026-05-05 10:43 | 28.32478 | 125.69242 | 38097 ft | 399 kts | 233° |
| 2026-05-05 10:44 | 28.28980 | 125.64352 | 38100 ft | 399 kts | 233° |
| 2026-05-05 10:44 | 28.25500 | 125.59491 | 38103 ft | 399 kts | 233° |
| 2026-05-05 10:45 | 28.21997 | 125.54606 | 38101 ft | 399 kts | 233° |
| 2026-05-05 10:45 | 28.18491 | 125.49721 | 38097 ft | 399 kts | 233° |
| 2026-05-05 10:46 | 28.14986 | 125.44843 | 38095 ft | 399 kts | 233° |
| 2026-05-05 10:46 | 28.11505 | 125.40003 | 38092 ft | 399 kts | 233° |
| 2026-05-05 10:47 | 28.07998 | 125.35133 | 38103 ft | 399 kts | 233° |
| 2026-05-05 10:47 | 28.04488 | 125.30265 | 38105 ft | 399 kts | 233° |
| 2026-05-05 10:48 | 28.00975 | 125.25398 | 38104 ft | 399 kts | 233° |
| 2026-05-05 10:48 | 27.97482 | 125.20564 | 38097 ft | 400 kts | 233° |
| 2026-05-05 10:49 | 27.93964 | 125.15700 | 38097 ft | 400 kts | 233° |
| 2026-05-05 10:49 | 27.90434 | 125.10826 | 38102 ft | 401 kts | 233° |
| 2026-05-05 10:50 | 27.86897 | 125.05948 | 38100 ft | 401 kts | 233° |
| 2026-05-05 10:50 | 27.83380 | 125.01103 | 38091 ft | 402 kts | 233° |
| 2026-05-05 10:51 | 27.79837 | 124.96228 | 38090 ft | 402 kts | 233° |
| 2026-05-05 10:51 | 27.76284 | 124.91344 | 38098 ft | 402 kts | 233° |
| 2026-05-05 10:52 | 27.72733 | 124.86469 | 38092 ft | 402 kts | 233° |
| 2026-05-05 10:52 | 27.69197 | 124.81619 | 38096 ft | 403 kts | 233° |
| 2026-05-05 10:53 | 27.65639 | 124.76743 | 38094 ft | 403 kts | 233° |
| 2026-05-05 10:53 | 27.62075 | 124.71867 | 38089 ft | 403 kts | 233° |
| 2026-05-05 10:54 | 27.58508 | 124.66988 | 38095 ft | 403 kts | 233° |
| 2026-05-05 10:54 | 27.54965 | 124.62146 | 38093 ft | 403 kts | 233° |
| 2026-05-05 10:55 | 27.51400 | 124.57277 | 38095 ft | 403 kts | 233° |
| 2026-05-05 10:55 | 27.47827 | 124.52404 | 38090 ft | 403 kts | 233° |
| 2026-05-05 10:56 | 27.44257 | 124.47538 | 38093 ft | 403 kts | 233° |
| 2026-05-05 10:56 | 27.40679 | 124.42668 | 38092 ft | 403 kts | 233° |
| 2026-05-05 10:57 | 27.37124 | 124.37834 | 38093 ft | 404 kts | 233° |
| 2026-05-05 10:57 | 27.33541 | 124.32968 | 38096 ft | 404 kts | 233° |
| 2026-05-05 10:58 | 27.29955 | 124.28102 | 38096 ft | 404 kts | 233° |
| 2026-05-05 10:58 | 27.26359 | 124.23230 | 38096 ft | 405 kts | 233° |
| 2026-05-05 10:59 | 27.22781 | 124.18387 | 38092 ft | 405 kts | 233° |
| 2026-05-05 10:59 | 27.19181 | 124.13517 | 38092 ft | 405 kts | 233° |
| 2026-05-05 11:00 | 27.15573 | 124.08644 | 38092 ft | 406 kts | 233° |
| 2026-05-05 11:00 | 27.11960 | 124.03767 | 38086 ft | 406 kts | 233° |
| 2026-05-05 11:01 | 27.08362 | 123.98923 | 38086 ft | 407 kts | 232° |
| 2026-05-05 11:01 | 27.04708 | 123.94063 | 38085 ft | 408 kts | 232° |
| 2026-05-05 11:02 | 27.01042 | 123.89203 | 38095 ft | 408 kts | 232° |
| 2026-05-05 11:02 | 26.97373 | 123.84340 | 38094 ft | 409 kts | 232° |
| 2026-05-05 11:03 | 26.93728 | 123.79509 | 38082 ft | 409 kts | 232° |
| 2026-05-05 11:03 | 26.90049 | 123.74637 | 38079 ft | 409 kts | 232° |
| 2026-05-05 11:04 | 26.86366 | 123.69766 | 38080 ft | 410 kts | 232° |
| 2026-05-05 11:04 | 26.82679 | 123.64895 | 38081 ft | 410 kts | 232° |
| 2026-05-05 11:05 | 26.79017 | 123.60062 | 38082 ft | 410 kts | 232° |
| 2026-05-05 11:05 | 26.75325 | 123.55194 | 38078 ft | 410 kts | 232° |
| 2026-05-05 11:06 | 26.71633 | 123.50331 | 38077 ft | 410 kts | 232° |
| 2026-05-05 11:06 | 26.67950 | 123.45484 | 38081 ft | 410 kts | 232° |
| 2026-05-05 11:07 | 26.64283 | 123.40668 | 38077 ft | 410 kts | 233° |
| 2026-05-05 11:07 | 26.60581 | 123.35813 | 38073 ft | 409 kts | 232° |
| 2026-05-05 11:08 | 26.56887 | 123.30974 | 38072 ft | 409 kts | 232° |
| 2026-05-05 11:08 | 26.53201 | 123.26147 | 38071 ft | 409 kts | 232° |
| 2026-05-05 11:09 | 26.49526 | 123.21340 | 38072 ft | 409 kts | 232° |
| 2026-05-05 11:09 | 26.45822 | 123.16501 | 38068 ft | 410 kts | 232° |
| 2026-05-05 11:10 | 26.42115 | 123.11662 | 38070 ft | 410 kts | 232° |
| 2026-05-05 11:10 | 26.38402 | 123.06820 | 38072 ft | 411 kts | 232° |
| 2026-05-05 11:11 | 26.34701 | 123.01999 | 38067 ft | 412 kts | 232° |
| 2026-05-05 11:11 | 26.30970 | 122.97148 | 38065 ft | 412 kts | 232° |
| 2026-05-05 11:12 | 26.27234 | 122.92300 | 38063 ft | 412 kts | 232° |
| 2026-05-05 11:12 | 26.23497 | 122.87452 | 38056 ft | 413 kts | 232° |
| 2026-05-05 11:13 | 26.19783 | 122.82640 | 38054 ft | 412 kts | 233° |
| 2026-05-05 11:13 | 26.16045 | 122.77800 | 38073 ft | 412 kts | 233° |
| 2026-05-05 11:14 | 26.12305 | 122.72962 | 38065 ft | 412 kts | 232° |
| 2026-05-05 11:14 | 26.08567 | 122.68133 | 38063 ft | 412 kts | 232° |
| 2026-05-05 11:15 | 26.04851 | 122.63337 | 38060 ft | 412 kts | 232° |
| 2026-05-05 11:15 | 26.01111 | 122.58514 | 38059 ft | 412 kts | 232° |
| 2026-05-05 11:16 | 25.97369 | 122.53694 | 38058 ft | 412 kts | 232° |
| 2026-05-05 11:16 | 25.93625 | 122.48878 | 38052 ft | 412 kts | 232° |
| 2026-05-05 11:17 | 25.89881 | 122.44067 | 38047 ft | 412 kts | 232° |
| 2026-05-05 11:17 | 25.86153 | 122.39280 | 38053 ft | 412 kts | 232° |
| 2026-05-05 11:18 | 25.82396 | 122.34460 | 38052 ft | 413 kts | 232° |
| 2026-05-05 11:18 | 25.78630 | 122.29632 | 38052 ft | 414 kts | 232° |
| 2026-05-05 11:19 | 25.74852 | 122.24795 | 38052 ft | 415 kts | 232° |
| 2026-05-05 11:19 | 25.71093 | 122.19987 | 38047 ft | 416 kts | 232° |
| 2026-05-05 11:20 | 25.67301 | 122.15141 | 38046 ft | 416 kts | 232° |
| 2026-05-05 11:20 | 25.63503 | 122.10291 | 38045 ft | 417 kts | 232° |
| 2026-05-05 11:21 | 25.59702 | 122.05439 | 38041 ft | 417 kts | 232° |
| 2026-05-05 11:21 | 25.55928 | 122.00609 | 38041 ft | 418 kts | 232° |
| 2026-05-05 11:22 | 25.52109 | 121.95757 | 38036 ft | 418 kts | 232° |
| 2026-05-05 11:22 | 25.48288 | 121.90911 | 38030 ft | 418 kts | 232° |
| 2026-05-05 11:23 | 25.44464 | 121.86061 | 38029 ft | 418 kts | 232° |
| 2026-05-05 11:23 | 25.40660 | 121.81241 | 38025 ft | 419 kts | 232° |
| 2026-05-05 11:24 | 25.36831 | 121.76393 | 38030 ft | 419 kts | 232° |
| 2026-05-05 11:24 | 25.32998 | 121.71545 | 38017 ft | 419 kts | 232° |
| 2026-05-05 11:25 | 25.29164 | 121.66702 | 38002 ft | 419 kts | 232° |
| 2026-05-05 11:25 | 25.25352 | 121.61890 | 37992 ft | 419 kts | 232° |
| 2026-05-05 11:26 | 25.21517 | 121.57054 | 37983 ft | 417 kts | 232° |
| 2026-05-05 11:26 | 25.17704 | 121.52253 | 38027 ft | 416 kts | 232° |
| 2026-05-05 11:27 | 25.13929 | 121.47386 | 38004 ft | 419 kts | 233° |
| 2026-05-05 11:27 | 25.10154 | 121.42472 | 38017 ft | 420 kts | 233° |
| 2026-05-05 11:28 | 25.06391 | 121.37585 | 38018 ft | 421 kts | 233° |
| 2026-05-05 11:28 | 25.02586 | 121.32658 | 38009 ft | 422 kts | 233° |
| 2026-05-05 11:29 | 24.98773 | 121.27729 | 38008 ft | 422 kts | 233° |
| 2026-05-05 11:29 | 24.94963 | 121.22809 | 38006 ft | 422 kts | 233° |
| 2026-05-05 11:30 | 24.91181 | 121.17928 | 38003 ft | 421 kts | 233° |
| 2026-05-05 11:30 | 24.87375 | 121.13020 | 38009 ft | 421 kts | 233° |
| 2026-05-05 11:31 | 24.83569 | 121.08122 | 38006 ft | 421 kts | 233° |
| 2026-05-05 11:31 | 24.79763 | 121.03224 | 38015 ft | 421 kts | 233° |
| 2026-05-05 11:32 | 24.75983 | 120.98365 | 38022 ft | 421 kts | 233° |
| 2026-05-05 11:32 | 24.72175 | 120.93472 | 38028 ft | 421 kts | 233° |
| 2026-05-05 11:33 | 24.68361 | 120.88577 | 38021 ft | 421 kts | 233° |
| 2026-05-05 11:33 | 24.64544 | 120.83683 | 38021 ft | 422 kts | 233° |
| 2026-05-05 11:34 | 24.60754 | 120.78826 | 38023 ft | 422 kts | 233° |
| 2026-05-05 11:34 | 24.56932 | 120.73936 | 38017 ft | 422 kts | 233° |
| 2026-05-05 11:35 | 24.52941 | 120.69191 | 38026 ft | 423 kts | 230° |
| 2026-05-05 11:35 | 24.48842 | 120.64542 | 38022 ft | 424 kts | 230° |
| 2026-05-05 11:36 | 24.44771 | 120.59922 | 38034 ft | 424 kts | 230° |
| 2026-05-05 11:36 | 24.40677 | 120.55262 | 38031 ft | 424 kts | 230° |
| 2026-05-05 11:37 | 24.36582 | 120.50599 | 38037 ft | 425 kts | 230° |
| 2026-05-05 11:37 | 24.32481 | 120.45933 | 38031 ft | 425 kts | 230° |
| 2026-05-05 11:38 | 24.28411 | 120.41308 | 38031 ft | 425 kts | 230° |
| 2026-05-05 11:38 | 24.24302 | 120.36642 | 38028 ft | 426 kts | 230° |
| 2026-05-05 11:39 | 24.20189 | 120.31971 | 38029 ft | 426 kts | 230° |
| 2026-05-05 11:39 | 24.16069 | 120.27300 | 38025 ft | 426 kts | 230° |
| 2026-05-05 11:40 | 24.11971 | 120.22664 | 38018 ft | 426 kts | 230° |
| 2026-05-05 11:40 | 24.07842 | 120.17995 | 38017 ft | 427 kts | 230° |
| 2026-05-05 11:41 | 24.03709 | 120.13323 | 38018 ft | 427 kts | 230° |
| 2026-05-05 11:41 | 23.99567 | 120.08649 | 38018 ft | 428 kts | 230° |
| 2026-05-05 11:42 | 23.95444 | 120.04005 | 38020 ft | 429 kts | 230° |
| 2026-05-05 11:42 | 23.91284 | 119.99323 | 38017 ft | 430 kts | 230° |
| 2026-05-05 11:43 | 23.87114 | 119.94633 | 38020 ft | 431 kts | 230° |
| 2026-05-05 11:43 | 23.82942 | 119.89944 | 38013 ft | 431 kts | 230° |
| 2026-05-05 11:44 | 23.78781 | 119.85272 | 38012 ft | 432 kts | 230° |
| 2026-05-05 11:44 | 23.74597 | 119.80579 | 38004 ft | 432 kts | 230° |
| 2026-05-05 11:45 | 23.70404 | 119.75879 | 38006 ft | 432 kts | 230° |
| 2026-05-05 11:45 | 23.66204 | 119.71176 | 38000 ft | 432 kts | 230° |
| 2026-05-05 11:46 | 23.62035 | 119.66513 | 38008 ft | 432 kts | 230° |
| 2026-05-05 11:46 | 23.58228 | 119.61498 | 38009 ft | 428 kts | 238° |
| 2026-05-05 11:47 | 23.55052 | 119.56036 | 38008 ft | 427 kts | 241° |
| 2026-05-05 11:47 | 23.51896 | 119.50551 | 38007 ft | 427 kts | 241° |
| 2026-05-05 11:48 | 23.47162 | 119.42372 | 38006 ft | 428 kts | 241° |
| 2026-05-05 11:48 | 23.43982 | 119.36900 | 38020 ft | 428 kts | 240° |
| 2026-05-05 11:49 | 23.40800 | 119.31429 | 38014 ft | 428 kts | 240° |
| 2026-05-05 11:49 | 23.37610 | 119.25951 | 38013 ft | 428 kts | 240° |
| 2026-05-05 11:50 | 23.34440 | 119.20512 | 38031 ft | 429 kts | 240° |
| 2026-05-05 11:50 | 23.31242 | 119.15032 | 38024 ft | 429 kts | 240° |
| 2026-05-05 11:51 | 23.28039 | 119.09548 | 38015 ft | 430 kts | 240° |
| 2026-05-05 11:51 | 23.24836 | 119.04071 | 38016 ft | 430 kts | 240° |
| 2026-05-05 11:52 | 23.21641 | 118.98613 | 38014 ft | 431 kts | 240° |
| 2026-05-05 11:52 | 23.18426 | 118.93127 | 38027 ft | 431 kts | 240° |
| 2026-05-05 11:53 | 23.15202 | 118.87631 | 38025 ft | 431 kts | 240° |
| 2026-05-05 11:53 | 23.11974 | 118.82134 | 38023 ft | 432 kts | 240° |
| 2026-05-05 11:54 | 23.08764 | 118.76675 | 38021 ft | 432 kts | 240° |
| 2026-05-05 11:54 | 23.05531 | 118.71181 | 38029 ft | 432 kts | 240° |
| 2026-05-05 11:55 | 23.02283 | 118.65667 | 38026 ft | 433 kts | 240° |
| 2026-05-05 11:55 | 22.99041 | 118.60167 | 38029 ft | 433 kts | 240° |
| 2026-05-05 11:56 | 22.95811 | 118.54695 | 38016 ft | 434 kts | 240° |
| 2026-05-05 11:56 | 22.92541 | 118.49186 | 38023 ft | 434 kts | 240° |
| 2026-05-05 11:57 | 22.89261 | 118.43681 | 38020 ft | 435 kts | 240° |
| 2026-05-05 11:57 | 22.85980 | 118.38175 | 38020 ft | 435 kts | 240° |
| 2026-05-05 11:58 | 22.82716 | 118.32703 | 38018 ft | 435 kts | 240° |
| 2026-05-05 11:58 | 22.79425 | 118.27188 | 38018 ft | 436 kts | 240° |
| 2026-05-05 11:59 | 22.76136 | 118.21682 | 38018 ft | 436 kts | 240° |
| 2026-05-05 11:59 | 22.72834 | 118.16161 | 38023 ft | 437 kts | 240° |
| 2026-05-05 12:00 | 22.69526 | 118.10635 | 38018 ft | 437 kts | 240° |
| 2026-05-05 12:00 | 22.66241 | 118.05153 | 38016 ft | 437 kts | 240° |
| 2026-05-05 12:01 | 22.62933 | 117.99638 | 38014 ft | 438 kts | 240° |
| 2026-05-05 12:01 | 22.59612 | 117.94104 | 38015 ft | 438 kts | 240° |
| 2026-05-05 12:02 | 22.56314 | 117.88558 | 38016 ft | 438 kts | 240° |
| 2026-05-05 12:02 | 22.53042 | 117.83045 | 38021 ft | 439 kts | 240° |
| 2026-05-05 12:03 | 22.49737 | 117.77485 | 38017 ft | 440 kts | 240° |
| 2026-05-05 12:03 | 22.46421 | 117.71918 | 38014 ft | 440 kts | 240° |
| 2026-05-05 12:04 | 22.43101 | 117.66350 | 38032 ft | 441 kts | 240° |
| 2026-05-05 12:04 | 22.39798 | 117.60816 | 38013 ft | 442 kts | 240° |
| 2026-05-05 12:05 | 22.36467 | 117.55239 | 38005 ft | 442 kts | 241° |
| 2026-05-05 12:05 | 22.34085 | 117.49202 | 38026 ft | 436 kts | 256° |
| 2026-05-05 12:06 | 22.33093 | 117.42768 | 38021 ft | 435 kts | 268° |
| 2026-05-05 12:06 | 22.32993 | 117.36274 | 38014 ft | 436 kts | 269° |
| 2026-05-05 12:07 | 22.32937 | 117.29723 | 38009 ft | 436 kts | 269° |
| 2026-05-05 12:07 | 22.32845 | 117.23171 | 38012 ft | 437 kts | 269° |
| 2026-05-05 12:08 | 22.32727 | 117.16611 | 38008 ft | 437 kts | 269° |
| 2026-05-05 12:08 | 22.32600 | 117.10050 | 38018 ft | 437 kts | 269° |
| 2026-05-05 12:09 | 22.32470 | 117.03532 | 38014 ft | 437 kts | 269° |
| 2026-05-05 12:09 | 22.32337 | 116.96978 | 38020 ft | 437 kts | 269° |
| 2026-05-05 12:10 | 22.32203 | 116.90412 | 38022 ft | 437 kts | 269° |
| 2026-05-05 12:10 | 22.32065 | 116.83843 | 38016 ft | 437 kts | 269° |
| 2026-05-05 12:11 | 22.31927 | 116.77329 | 38018 ft | 437 kts | 269° |
| 2026-05-05 12:11 | 22.31784 | 116.70766 | 38018 ft | 437 kts | 269° |
| 2026-05-05 12:12 | 22.31639 | 116.64209 | 38016 ft | 437 kts | 269° |
| 2026-05-05 12:12 | 22.31491 | 116.57650 | 38017 ft | 437 kts | 269° |
| 2026-05-05 12:13 | 22.31342 | 116.51134 | 38021 ft | 437 kts | 269° |
| 2026-05-05 12:13 | 22.31189 | 116.44575 | 38020 ft | 437 kts | 269° |
| 2026-05-05 12:14 | 22.31033 | 116.38013 | 38014 ft | 437 kts | 269° |
| 2026-05-05 12:14 | 22.30875 | 116.31448 | 38015 ft | 437 kts | 269° |
| 2026-05-05 12:15 | 22.30714 | 116.24891 | 38013 ft | 437 kts | 269° |
| 2026-05-05 12:15 | 22.30551 | 116.18366 | 38018 ft | 437 kts | 269° |
| 2026-05-05 12:16 | 22.30385 | 116.11797 | 38011 ft | 438 kts | 269° |
| 2026-05-05 12:16 | 22.30216 | 116.05224 | 38012 ft | 438 kts | 269° |
| 2026-05-05 12:17 | 22.30130 | 116.01929 | 37696 ft | 443 kts | 269° |
| 2026-05-05 12:17 | 22.30042 | 115.98572 | 36967 ft | 447 kts | 269° |
| 2026-05-05 12:17 | 22.29955 | 115.95272 | 36121 ft | 447 kts | 269° |
| 2026-05-05 12:17 | 22.29865 | 115.91920 | 35280 ft | 446 kts | 269° |
| 2026-05-05 12:18 | 22.29776 | 115.88577 | 34379 ft | 447 kts | 269° |
| 2026-05-05 12:18 | 22.29685 | 115.85217 | 33365 ft | 448 kts | 269° |
| 2026-05-05 12:18 | 22.29594 | 115.81850 | 32352 ft | 449 kts | 269° |
| 2026-05-05 12:18 | 22.29504 | 115.78491 | 31343 ft | 449 kts | 269° |
| 2026-05-05 12:19 | 22.29416 | 115.75126 | 30572 ft | 445 kts | 269° |
| 2026-05-05 12:19 | 22.29329 | 115.71800 | 29785 ft | 441 kts | 269° |
| 2026-05-05 12:19 | 22.29241 | 115.68506 | 28974 ft | 437 kts | 269° |
| 2026-05-05 12:19 | 22.29154 | 115.65289 | 28254 ft | 432 kts | 269° |
| 2026-05-05 12:20 | 22.29066 | 115.62064 | 27556 ft | 427 kts | 269° |
| 2026-05-05 12:20 | 22.28979 | 115.58885 | 26874 ft | 423 kts | 269° |
| 2026-05-05 12:20 | 22.28892 | 115.55719 | 26210 ft | 420 kts | 269° |
| 2026-05-05 12:20 | 22.28805 | 115.52571 | 25546 ft | 417 kts | 269° |
| 2026-05-05 12:21 | 22.28718 | 115.49467 | 24887 ft | 414 kts | 268° |
| 2026-05-05 12:21 | 22.28631 | 115.46360 | 24223 ft | 413 kts | 268° |
| 2026-05-05 12:21 | 22.28544 | 115.43271 | 23559 ft | 411 kts | 268° |
| 2026-05-05 12:21 | 22.28456 | 115.40185 | 22822 ft | 409 kts | 268° |
| 2026-05-05 12:22 | 22.28369 | 115.37169 | 22166 ft | 406 kts | 268° |
| 2026-05-05 12:22 | 22.28282 | 115.34139 | 21526 ft | 402 kts | 268° |
| 2026-05-05 12:22 | 22.28193 | 115.31129 | 20902 ft | 399 kts | 268° |
| 2026-05-05 12:22 | 22.28102 | 115.28154 | 20303 ft | 395 kts | 268° |
| 2026-05-05 12:23 | 22.28011 | 115.25200 | 19691 ft | 392 kts | 268° |
| 2026-05-05 12:23 | 22.27920 | 115.22261 | 19080 ft | 390 kts | 268° |
| 2026-05-05 12:23 | 22.27829 | 115.19344 | 18472 ft | 388 kts | 268° |
| 2026-05-05 12:23 | 22.27739 | 115.16434 | 17804 ft | 386 kts | 268° |
| 2026-05-05 12:24 | 22.27650 | 115.13590 | 17186 ft | 383 kts | 268° |
| 2026-05-05 12:24 | 22.27560 | 115.10728 | 16584 ft | 380 kts | 268° |
| 2026-05-05 12:24 | 22.27471 | 115.07891 | 15995 ft | 377 kts | 268° |
| 2026-05-05 12:24 | 22.27381 | 115.05071 | 15409 ft | 375 kts | 268° |
| 2026-05-05 12:25 | 22.27292 | 115.02271 | 14842 ft | 373 kts | 268° |
| 2026-05-05 12:25 | 22.27202 | 114.99476 | 14259 ft | 372 kts | 267° |
| 2026-05-05 12:25 | 22.27113 | 114.96693 | 13664 ft | 371 kts | 267° |
| 2026-05-05 12:25 | 22.27022 | 114.93916 | 13038 ft | 370 kts | 267° |
| 2026-05-05 12:26 | 22.26932 | 114.91143 | 12450 ft | 369 kts | 267° |
| 2026-05-05 12:26 | 22.26842 | 114.88421 | 11877 ft | 367 kts | 267° |
| 2026-05-05 12:26 | 22.26752 | 114.85677 | 11442 ft | 362 kts | 267° |
| 2026-05-05 12:26 | 22.26663 | 114.83000 | 11280 ft | 350 kts | 267° |
| 2026-05-05 12:27 | 22.26552 | 114.80440 | 11119 ft | 332 kts | 262° |
| 2026-05-05 12:27 | 22.25892 | 114.78112 | 10976 ft | 320 kts | 243° |
| 2026-05-05 12:27 | 22.24668 | 114.76158 | 10841 ft | 312 kts | 229° |
| 2026-05-05 12:27 | 22.23140 | 114.74517 | 10683 ft | 308 kts | 225° |
| 2026-05-05 12:28 | 22.21571 | 114.72932 | 10585 ft | 308 kts | 224° |
| 2026-05-05 12:28 | 22.20037 | 114.71394 | 10384 ft | 301 kts | 224° |
| 2026-05-05 12:28 | 22.18525 | 114.69873 | 10247 ft | 292 kts | 224° |
| 2026-05-05 12:28 | 22.17070 | 114.68399 | 10103 ft | 284 kts | 225° |
| 2026-05-05 12:29 | 22.15652 | 114.66954 | 9969 ft | 277 kts | 225° |
| 2026-05-05 12:29 | 22.14264 | 114.65536 | 9834 ft | 274 kts | 225° |
| 2026-05-05 12:29 | 22.12875 | 114.64114 | 9691 ft | 275 kts | 225° |
| 2026-05-05 12:29 | 22.11495 | 114.62699 | 9555 ft | 274 kts | 225° |
| 2026-05-05 12:30 | 22.10113 | 114.61281 | 9424 ft | 273 kts | 225° |
| 2026-05-05 12:30 | 22.08757 | 114.59892 | 9287 ft | 272 kts | 225° |
| 2026-05-05 12:30 | 22.07385 | 114.58484 | 9168 ft | 272 kts | 225° |
| 2026-05-05 12:30 | 22.06013 | 114.57077 | 9017 ft | 272 kts | 225° |
| 2026-05-05 12:31 | 22.04642 | 114.55673 | 8906 ft | 273 kts | 225° |
| 2026-05-05 12:31 | 22.03262 | 114.54259 | 8773 ft | 274 kts | 225° |
| 2026-05-05 12:31 | 22.02044 | 114.52708 | 8609 ft | 271 kts | 242° |
| 2026-05-05 12:31 | 22.01297 | 114.50860 | 8516 ft | 270 kts | 248° |
| 2026-05-05 12:32 | 22.00596 | 114.48985 | 8382 ft | 271 kts | 248° |
| 2026-05-05 12:32 | 21.99888 | 114.47096 | 8245 ft | 272 kts | 248° |
| 2026-05-05 12:32 | 21.99174 | 114.45202 | 8128 ft | 274 kts | 248° |
| 2026-05-05 12:32 | 21.98457 | 114.43308 | 7975 ft | 279 kts | 248° |
| 2026-05-05 12:33 | 21.97717 | 114.41363 | 7936 ft | 280 kts | 247° |
| 2026-05-05 12:33 | 21.96980 | 114.39428 | 7831 ft | 280 kts | 247° |
| 2026-05-05 12:33 | 21.96240 | 114.37491 | 7678 ft | 281 kts | 247° |
| 2026-05-05 12:33 | 21.95503 | 114.35566 | 7569 ft | 273 kts | 247° |
| 2026-05-05 12:34 | 21.94792 | 114.33708 | 7315 ft | 262 kts | 247° |
| 2026-05-05 12:34 | 21.94102 | 114.31908 | 7204 ft | 258 kts | 246° |
| 2026-05-05 12:34 | 21.93423 | 114.30138 | 7073 ft | 255 kts | 246° |
| 2026-05-05 12:34 | 21.92749 | 114.28383 | 6940 ft | 252 kts | 246° |
| 2026-05-05 12:35 | 21.92090 | 114.26665 | 6824 ft | 254 kts | 246° |
| 2026-05-05 12:35 | 21.91406 | 114.24886 | 6705 ft | 259 kts | 246° |
| 2026-05-05 12:35 | 21.90712 | 114.23083 | 6572 ft | 263 kts | 246° |
| 2026-05-05 12:35 | 21.90008 | 114.21250 | 6455 ft | 266 kts | 247° |
| 2026-05-05 12:36 | 21.89671 | 114.19311 | 6304 ft | 269 kts | 272° |
| 2026-05-05 12:36 | 21.90143 | 114.17364 | 6171 ft | 270 kts | 294° |
| 2026-05-05 12:36 | 21.91036 | 114.15591 | 6048 ft | 269 kts | 297° |
| 2026-05-05 12:36 | 21.91940 | 114.13868 | 5915 ft | 267 kts | 297° |
| 2026-05-05 12:37 | 21.92854 | 114.12132 | 5786 ft | 266 kts | 297° |
| 2026-05-05 12:37 | 21.93761 | 114.10403 | 5651 ft | 265 kts | 297° |
| 2026-05-05 12:37 | 21.94665 | 114.08676 | 5528 ft | 264 kts | 297° |
| 2026-05-05 12:37 | 21.95561 | 114.06956 | 5394 ft | 263 kts | 297° |
| 2026-05-05 12:38 | 21.96453 | 114.05240 | 5267 ft | 262 kts | 297° |
| 2026-05-05 12:38 | 21.97338 | 114.03533 | 5146 ft | 261 kts | 297° |
| 2026-05-05 12:38 | 21.98224 | 114.01820 | 5023 ft | 262 kts | 297° |
| 2026-05-05 12:38 | 21.99112 | 114.00100 | 4900 ft | 263 kts | 297° |
| 2026-05-05 12:39 | 21.99990 | 113.98400 | 4773 ft | 263 kts | 296° |
| 2026-05-05 12:39 | 22.00880 | 113.96678 | 4647 ft | 264 kts | 296° |
| 2026-05-05 12:39 | 22.01775 | 113.94939 | 4497 ft | 266 kts | 297° |
| 2026-05-05 12:39 | 22.02675 | 113.93193 | 4372 ft | 267 kts | 296° |
| 2026-05-05 12:40 | 22.03578 | 113.91440 | 4246 ft | 268 kts | 296° |
| 2026-05-05 12:40 | 22.04488 | 113.89673 | 4115 ft | 270 kts | 297° |
| 2026-05-05 12:40 | 22.05399 | 113.87904 | 3976 ft | 270 kts | 297° |
| 2026-05-05 12:40 | 22.06312 | 113.86131 | 3843 ft | 270 kts | 297° |
| 2026-05-05 12:41 | 22.07213 | 113.84379 | 3713 ft | 272 kts | 297° |
| 2026-05-05 12:41 | 22.08127 | 113.82601 | 3556 ft | 270 kts | 298° |
| 2026-05-05 12:41 | 22.09033 | 113.80841 | 3442 ft | 268 kts | 297° |
| 2026-05-05 12:41 | 22.09925 | 113.79107 | 3390 ft | 264 kts | 297° |
| 2026-05-05 12:42 | 22.10988 | 113.77544 | 3203 ft | 258 kts | 320° |
| 2026-05-05 12:42 | 22.12514 | 113.76642 | 3093 ft | 245 kts | 336° |
| 2026-05-05 12:42 | 22.14036 | 113.75895 | 2932 ft | 237 kts | 336° |
| 2026-05-05 12:42 | 22.15495 | 113.75174 | 2836 ft | 223 kts | 336° |
| 2026-05-05 12:43 | 22.16864 | 113.74496 | 2706 ft | 210 kts | 337° |
| 2026-05-05 12:43 | 22.18151 | 113.73857 | 2619 ft | 200 kts | 337° |
| 2026-05-05 12:43 | 22.19412 | 113.73228 | 2529 ft | 204 kts | 336° |
| 2026-05-05 12:43 | 22.20683 | 113.72593 | 2438 ft | 200 kts | 338° |
| 2026-05-05 12:44 | 22.21930 | 113.71971 | 2349 ft | 196 kts | 338° |
| 2026-05-05 12:44 | 22.23215 | 113.71619 | 2228 ft | 189 kts | 9° |
| 2026-05-05 12:44 | 22.24380 | 113.72174 | 2178 ft | 185 kts | 40° |
| 2026-05-05 12:44 | 22.25382 | 113.73062 | 2090 ft | 186 kts | 43° |
| 2026-05-05 12:45 | 22.26356 | 113.73966 | 2003 ft | 183 kts | 44° |
| 2026-05-05 12:45 | 22.27298 | 113.74843 | 1904 ft | 181 kts | 45° |
| 2026-05-05 12:45 | 22.28012 | 113.75919 | 1802 ft | 175 kts | 67° |
| 2026-05-05 12:45 | 22.28527 | 113.77127 | 1753 ft | 180 kts | 68° |
| 2026-05-05 12:46 | 22.28984 | 113.78371 | 1656 ft | 174 kts | 71° |
| 2026-05-05 12:46 | 22.29374 | 113.79561 | 1551 ft | 160 kts | 72° |
| 2026-05-05 12:46 | 22.29717 | 113.80630 | 1484 ft | 144 kts | 72° |
| 2026-05-05 12:46 | 22.30045 | 113.81656 | 1284 ft | 142 kts | 71° |
| 2026-05-05 12:47 | 22.30370 | 113.82668 | 1089 ft | 143 kts | 71° |
| 2026-05-05 12:47 | 22.30692 | 113.83669 | 914 ft | 143 kts | 71° |
| 2026-05-05 12:47 | 22.31021 | 113.84684 | 754 ft | 143 kts | 72° |
| 2026-05-05 12:47 | 22.31346 | 113.85696 | 563 ft | 142 kts | 71° |
| 2026-05-05 12:48 | 22.31680 | 113.86691 | 377 ft | 141 kts | 71° |
| 2026-05-05 12:48 | 22.31998 | 113.87686 | 179 ft | 139 kts | 73° |
| 2026-05-05 12:48 | 22.32311 | 113.88681 | 43 ft | 138 kts | 72° |
| 2026-05-05 12:48 | 22.32590 | 113.89545 | 42 ft | 101 kts | 71° |
| 2026-05-05 12:49 | 22.32770 | 113.90102 | 42 ft | 57 kts | 71° |
| 2026-05-05 12:49 | 22.32827 | 113.90378 | 41 ft | 30 kts | 88° |
| 2026-05-05 12:49 | 22.32806 | 113.90522 | 41 ft | 7 kts | 102° |
| 2026-05-05 12:49 | 22.32795 | 113.90575 | 42 ft | 8 kts | 103° |
| 2026-05-05 12:50 | 22.32783 | 113.90681 | 42 ft | 16 kts | 86° |
| 2026-05-05 12:50 | 22.32810 | 113.90797 | 42 ft | 16 kts | 71° |
| 2026-05-05 12:50 | 22.32847 | 113.90910 | 43 ft | 16 kts | 71° |
| 2026-05-05 12:50 | 22.32883 | 113.91023 | 43 ft | 16 kts | 70° |
| 2026-05-05 12:51 | 22.32920 | 113.91137 | 43 ft | 16 kts | 71° |
| 2026-05-05 12:51 | 22.32957 | 113.91250 | 43 ft | 16 kts | 71° |
| 2026-05-05 12:51 | 22.32993 | 113.91363 | 43 ft | 16 kts | 71° |
| 2026-05-05 12:51 | 22.33029 | 113.91475 | 43 ft | 16 kts | 70° |
| 2026-05-05 12:52 | 22.33066 | 113.91588 | 43 ft | 16 kts | 71° |
| 2026-05-05 12:52 | 22.33102 | 113.91701 | 42 ft | 16 kts | 71° |
| 2026-05-05 12:52 | 22.33139 | 113.91814 | 42 ft | 16 kts | 71° |
| 2026-05-05 12:52 | 22.33175 | 113.91927 | 42 ft | 16 kts | 71° |
| 2026-05-05 12:53 | 22.33204 | 113.92015 | 42 ft | 10 kts | 70° |
| 2026-05-05 12:53 | 22.33207 | 113.92087 | 42 ft | 10 kts | 116° |
| 2026-05-05 12:53 | 22.33147 | 113.92128 | 42 ft | 11 kts | 160° |
| 2026-05-05 12:53 | 22.33066 | 113.92159 | 42 ft | 15 kts | 161° |
| 2026-05-05 12:54 | 22.32872 | 113.92232 | 42 ft | 15 kts | 161° |
| 2026-05-05 12:54 | 22.32773 | 113.92269 | 42 ft | 15 kts | 161° |
| 2026-05-05 12:54 | 22.32675 | 113.92305 | 42 ft | 15 kts | 160° |
| 2026-05-05 12:55 | 22.32577 | 113.92342 | 42 ft | 15 kts | 161° |
| 2026-05-05 12:55 | 22.32479 | 113.92379 | 42 ft | 15 kts | 161° |
| 2026-05-05 12:55 | 22.32383 | 113.92415 | 42 ft | 11 kts | 161° |
| 2026-05-05 12:55 | 22.32316 | 113.92441 | 42 ft | 10 kts | 161° |
| 2026-05-05 12:56 | 22.32256 | 113.92476 | 42 ft | 10 kts | 126° |
| 2026-05-05 12:56 | 22.32258 | 113.92550 | 42 ft | 10 kts | 73° |
| 2026-05-05 12:56 | 22.32274 | 113.92625 | 42 ft | 10 kts | 98° |
| 2026-05-05 12:56 | 22.32223 | 113.92673 | 42 ft | 11 kts | 162° |
| 2026-05-05 12:57 | 22.32149 | 113.92699 | 41 ft | 12 kts | 162° |
| 2026-05-05 12:57 | 22.32065 | 113.92730 | 40 ft | 14 kts | 161° |
| 2026-05-05 12:57 | 22.31979 | 113.92762 | 41 ft | 12 kts | 161° |
| 2026-05-05 12:57 | 22.31923 | 113.92783 | 42 ft | 8 kts | 165° |
| 2026-05-05 12:58 | 22.31873 | 113.92758 | 42 ft | 9 kts | 234° |
| 2026-05-05 12:58 | 22.31847 | 113.92693 | 42 ft | 11 kts | 249° |
| 2026-05-05 12:58 | 22.31818 | 113.92606 | 42 ft | 13 kts | 251° |
| 2026-05-05 12:58 | 22.31787 | 113.92509 | 41 ft | 14 kts | 250° |
| 2026-05-05 12:59 | 22.31754 | 113.92408 | 42 ft | 14 kts | 251° |
| 2026-05-05 12:59 | 22.31722 | 113.92308 | 42 ft | 14 kts | 251° |
| 2026-05-05 12:59 | 22.31689 | 113.92207 | 41 ft | 14 kts | 251° |
| 2026-05-05 13:00 | 22.31628 | 113.92043 | 41 ft | 9 kts | 223° |
| 2026-05-05 13:00 | 22.31565 | 113.92042 | 42 ft | 10 kts | 163° |
| 2026-05-05 13:01 | 22.31393 | 113.92179 | 42 ft | 12 kts | 116° |
| 2026-05-05 13:01 | 22.31357 | 113.92258 | 42 ft | 12 kts | 116° |
| 2026-05-05 13:01 | 22.31326 | 113.92330 | 42 ft | 10 kts | 115° |
| 2026-05-05 13:01 | 22.31323 | 113.92358 | 42 ft | 1 kts | 87° |
| 2026-05-05 13:02 | 22.31312 | 113.92378 | 41 ft | 7 kts | 120° |
| 2026-05-05 13:02 | 22.31303 | 113.92425 | 42 ft | 4 kts | 66° |
| 2026-05-05 13:02 | 22.31322 | 113.92445 | 42 ft | 3 kts | 34° |
| 2026-05-05 13:02 | 22.31330 | 113.92450 | 42 ft | 1 kts | 30° |
| 2026-05-05 13:03 | 22.31339 | 113.92456 | 42 ft | 0 kts | 29° |
| 2026-05-05 13:03 | 22.31340 | 113.92456 | 42 ft | 2 kts | 29° |
| 2026-05-05 13:03 | 22.31356 | 113.92465 | 42 ft | 2 kts | 27° |
| 2026-05-05 13:03 | 22.31359 | 113.92467 | 42 ft | 0 kts | 27° |